Etusivu
METAR-TAF:

METAR-TAF

Lentoasemat :

Exeter, Englanti

Leveyspiiri: 50-44N, Pituuspiiri: 003-25W, korkeus merenpinnasta: 30 m

Tämänhetkinen sää

Tämä raportti tehtiin 33 minuuttia sitten, kello 20.20 UTC
Tuuli 2 kn eri suunnista
Lämpötila 15°C
Kosteus 82%
Ilmanpaine 1021 hPa
Näkyvyys 10 km tai enemmän
ei pilviä alle 1500 m:ssä eikä cumulonimbus-pilviä

METAR: EGTE 232020Z VRB02KT CAVOK 15/12 Q1021

Aika: 21:53 (20:53 UTC)

Sääennuste

Tämä raportti tehtiin 59 minuuttia sitten, kello 19.54 UTC
Ennuste voimassa 23. päivästä klo 21 UTC - 24. päivään klo 06 UTC
Tuuli 2 kn eri suunnista
Näkyvyys 10 km tai enemmän
Muutamia pilviä 2500 ft:n korkeudessa

TAF: EGTE 231954Z 2321/2406 VRB02KT 9999 FEW025

Säähavainnot ja -ennusteet yli 4000 lentoasemalta (METAR- ja TAF-raportit).

Käytössä olevat sääasemat on merkitty karttaan keltaisilla ja punaisilla pisteillä.

Aseta hiiri pisteen päälle nähdäksesi sääaseman nimen.

Klikkaa sitten nähdäksesi säähavainnot ja -ennusteet.

Kartan vaihtaminen: klikkaa mustalla rastilla varustettuja vihreitä pisteitä, niin voit zoomata sisään; viivalla varustettua vihreää pistettä, niin voit zoomata ulos tai vihreitä nuolia, niin pääset viereisille kartoille.


METAR-TAF: